Archival Weather

Fukuoka

Fukuoka, Japan (RJFF)

Report from: Tuesday, August 16, 2022 7:39 PM JST
Current time: Sunday, November 27, 2022 5:45 PM JST

Current weather
Weather history
Weather forecast

Present weatherRain showers
Temperature27.0°C (80.6°F)
Heat index31.1°C (87.9°F)
Dew point26.0°C (78.8°F)
Winds 13 kts (6.7 m/s, 15 mph) South-Southeast (150°)
Visibility6.2 mi. (10 km)
Clouds Few clouds 500 ft. (152 m)
Few clouds with cumulonimbus 3,000 ft. (914 m)
Scattered clouds 3,500 ft. (1,067 m)
Ceiling: Broken clouds 4,000 ft. (1,219 m)
Altimeter29.74 in.Hg (1007 mB)
Precip. events C 7:01 PM
Relative humidity94 %
Density altitude2,042 ft. (623 m)
Remarks Special weather observation
Cumulonimbus clouds observed north and southwest west moving northeast
Flight conditions Visual Meteorological Conditions
Raw dataSPJP31 KWBC 161058 SPECI RJFF 161039Z 15013KT 9999 SHRA FEW005 FEW030CB SCT035 BKN040 27/26 Q1007 RMK 1ST005 1CB030 3CU035 5CU040 A2974 CB 15KM N AND 25KM SW-W MOV NE
An error has occurred. This application may no longer respond until reloaded. Reload 🗙